KSNT

Stanley Ranger Station Airport

Stanley, Idaho, USA
METAR KSNT 132351Z AUTO 20003KT M13/M17 A3034 RMK AO1 SLP355 T11281167 11083 21161 55007
Observed Flight Rules
Dec-13 @ 23:51 UTC (an hour ago)
Wind
200° at 3 knots
Temperatures Readings
Current -13°C / 9°F
Dewpoint -17°C / 1°F
Humidity 72%
Altimeter 30.34" Hg
Pressure 1035.5 hPa
Elevation 1980
METAR KSNT 132351Z AUTO 20003KT M13/M17 A3034 RMK AO1 SLP355 T11281167 11083 21161 55007
Observed Flight Rules
Dec-13 @ 23:51 UTC
(an hour ago)
Wind
200° at 3 knots
Temperature Dewpoint
-13°C / 9°F -17°C / 1°F
Humidity Altimeter Pressure
72% 30.34" Hg 1035.5 hPa